Time;durP1;ratioP1;P1;durP2;ratioP2;P2;SDS_P1;SDS_P2;PMS_P1;PMS_P2;Temp;Humidity;BMP_temperature;BMP_pressure;BME280_temperature;BME280_humidity;BME280_pressure;Samples;Min_cycle;Max_cycle;Signal;HPM_P1;HPM_P2
2022/03/30 00:00:46;;;;;;;34.13;17.95;;;;;;;;;;5003487;28;20433;-68
2022/03/30 00:03:12;;;;;;;32.47;18.05;;;;;;;;;;4990566;28;20584;-68
2022/03/30 00:05:38;;;;;;;33.38;18.58;;;5.10;99.90;;;;;;5003984;28;20941;-68
2022/03/30 00:08:05;;;;;;;34.03;18.57;;;;;;;;;;5003743;28;20493;-68
2022/03/30 00:10:31;;;;;;;37.17;19.40;;;;;;;;;;4980195;28;20463;-67
2022/03/30 00:12:57;;;;;;;35.75;19.10;;;;;;;;;;4997825;28;20464;-68
2022/03/30 00:15:24;;;;;;;35.58;19.42;;;;;;;;;;4967641;28;20436;-68
2022/03/30 00:17:50;;;;;;;35.45;18.48;;;;;;;;;;5003001;28;20432;-67
2022/03/30 00:20:16;;;;;;;34.00;18.00;;;4.10;99.90;;;;;;4981934;28;20442;-68
2022/03/30 00:22:43;;;;;;;35.40;18.27;;;;;;;;;;4998926;28;20425;-68
2022/03/30 00:25:10;;;;;;;33.10;17.30;;;;;;;;;;5006387;28;20425;-68
2022/03/30 00:27:36;;;;;;;33.47;18.20;;;;;;;;;;4999757;28;20633;-67
2022/03/30 00:30:03;;;;;;;35.92;18.20;;;;;;;;;;4983250;28;20436;-68
2022/03/30 00:32:29;;;;;;;35.30;18.10;;;5.10;99.90;;;;;;5000257;28;20429;-68
2022/03/30 00:34:55;;;;;;;31.98;18.40;;;;;;;;;;5002310;28;20421;-67
2022/03/30 00:37:21;;;;;;;31.37;17.87;;;;;;;;;;4971986;28;20531;-68
2022/03/30 00:39:47;;;;;;;38.88;18.88;;;;;;;;;;5005510;28;20429;-68
2022/03/30 00:42:17;;;;;;;34.35;17.85;;;;;;;;;;4995030;28;20433;-68
2022/03/30 00:44:43;;;;;;;35.05;18.73;;;;;;;;;;4971110;28;20789;-68
2022/03/30 00:47:20;;;;;;;30.88;17.75;;;;;;;;;;4988301;28;20505;-67
2022/03/30 00:49:46;;;;;;;32.77;17.17;;;5.20;99.90;;;;;;5003323;28;20838;-68
2022/03/30 00:52:12;;;;;;;32.60;17.85;;;;;;;;;;4974736;28;20438;-67
2022/03/30 00:54:40;;;;;;;32.35;18.05;;;;;;;;;;4971386;28;20421;-67
2022/03/30 00:57:08;;;;;;;33.42;17.52;;;;;;;;;;4998499;28;20866;-68
2022/03/30 00:59:34;;;;;;;31.75;17.88;;;;;;;;;;4982932;28;20441;-68
2022/03/30 01:02:01;;;;;;;36.78;18.02;;;;;;;;;;4968402;28;20981;-68
2022/03/30 01:04:28;;;;;;;34.35;17.48;;;;;;;;;;4995966;28;20481;-67
2022/03/30 01:06:54;;;;;;;33.67;18.15;;;;;;;;;;5007442;28;20465;-68
2022/03/30 01:09:20;;;;;;;34.13;17.98;;;;;;;;;;5005266;28;20451;-68
2022/03/30 01:11:47;;;;;;;33.20;18.13;;;;;;;;;;4973056;28;20440;-68
2022/03/30 01:14:13;;;;;;;35.47;17.60;;;;;;;;;;4995579;28;20422;-67
2022/03/30 01:16:43;;;;;;;33.13;17.83;;;;;;;;;;4982386;28;20423;-68
2022/03/30 01:19:10;;;;;;;36.63;17.83;;;;;;;;;;4999751;28;20473;-68
2022/03/30 01:21:36;;;;;;;33.42;17.30;;;;;;;;;;4982869;28;20425;-68
2022/03/30 01:24:03;;;;;;;31.10;16.48;;;;;;;;;;4993504;28;20468;-68
2022/03/30 01:26:29;;;;;;;28.90;16.73;;;;;;;;;;4978262;28;20968;-68
2022/03/30 01:28:56;;;;;;;32.08;16.63;;;;;;;;;;4970133;28;20635;-68
2022/03/30 01:34:07;;;;;;;35.80;17.33;;;;;;;;;;4982112;28;20436;-68
2022/03/30 01:36:35;;;;;;;32.45;15.50;;;;;;;;;;4998025;28;20447;-67
2022/03/30 01:39:02;;;;;;;30.95;15.68;;;;;;;;;;4994071;28;20444;-67
2022/03/30 01:41:29;;;;;;;31.23;16.17;;;;;;;;;;4987392;28;20470;-68
2022/03/30 01:43:56;;;;;;;31.58;15.68;;;;;;;;;;4985611;28;20454;-67
2022/03/30 01:46:22;;;;;;;29.85;15.60;;;;;;;;;;4977953;28;20448;-67
2022/03/30 01:48:48;;;;;;;30.17;15.30;;;;;;;;;;5000656;28;20444;-67
2022/03/30 01:51:15;;;;;;;30.35;16.25;;;;;;;;;;4977933;28;20421;-68
2022/03/30 01:53:41;;;;;;;28.50;15.40;;;;;;;;;;4988259;28;20433;-68
2022/03/30 01:56:07;;;;;;;36.95;15.93;;;;;;;;;;5002207;28;20443;-68
2022/03/30 01:58:33;;;;;;;30.83;15.27;;;;;;;;;;5001847;28;20440;-68
2022/03/30 02:01:00;;;;;;;26.73;15.10;;;;;;;;;;4982572;28;20421;-68
2022/03/30 02:03:27;;;;;;;29.47;15.43;;;;;;;;;;4988280;28;20432;-68
2022/03/30 02:05:54;;;;;;;31.90;15.63;;;;;;;;;;4984140;28;20425;-68
2022/03/30 02:08:21;;;;;;;30.77;16.67;;;;;;;;;;4989163;28;20433;-68
2022/03/30 02:10:47;;;;;;;32.90;17.35;;;;;;;;;;4989201;28;20464;-67
2022/03/30 02:13:14;;;;;;;32.67;16.63;;;;;;;;;;4986096;28;20427;-68
2022/03/30 02:15:40;;;;;;;31.42;17.25;;;;;;;;;;4981303;28;20430;-68
2022/03/30 02:18:06;;;;;;;33.08;17.30;;;;;;;;;;4988856;28;20425;-68
2022/03/30 02:20:33;;;;;;;32.20;17.83;;;;;;;;;;5005438;28;20436;-69
2022/03/30 02:22:59;;;;;;;37.28;18.05;;;;;;;;;;5010049;28;20421;-68
2022/03/30 02:25:26;;;;;;;32.70;17.95;;;;;;;;;;4969140;28;20509;-68
2022/03/30 02:27:52;;;;;;;33.08;18.25;;;;;;;;;;4992125;28;20924;-68
2022/03/30 02:30:18;;;;;;;34.92;18.02;;;;;;;;;;4966394;28;20445;-68
2022/03/30 02:32:44;;;;;;;34.83;18.05;;;;;;;;;;4985750;28;20532;-69
2022/03/30 02:35:12;;;;;;;35.30;17.60;;;;;;;;;;4959968;28;20424;-68
2022/03/30 02:37:38;;;;;;;36.67;17.83;;;;;;;;;;4986272;28;20508;-68
2022/03/30 02:40:05;;;;;;;38.75;18.73;;;;;;;;;;5001490;28;20428;-68
2022/03/30 02:42:31;;;;;;;37.75;18.48;;;;;;;;;;5001494;28;20448;-68
2022/03/30 02:44:57;;;;;;;36.53;18.67;;;;;;;;;;4976398;28;20433;-68
2022/03/30 02:48:17;;;;;;;35.43;17.43;;;;;;;;;;5002120;28;20435;-68
2022/03/30 02:50:09;;;;;;;36.22;18.35;;;;;;;;;;5009681;28;20468;-68
2022/03/30 02:52:35;;;;;;;38.97;18.13;;;;;;;;;;4988874;28;20537;-68
2022/03/30 02:55:01;;;;;;;34.35;17.70;;;;;;;;;;5024013;28;20454;-68
2022/03/30 02:57:28;;;;;;;38.08;18.88;;;;;;;;;;5026721;28;20440;-68
2022/03/30 02:59:54;;;;;;;34.78;19.02;;;;;;;;;;5004995;28;20469;-68
2022/03/30 03:02:19;;;;;;;36.15;18.52;;;5.70;99.90;;;;;;5022429;28;20436;-69
2022/03/30 03:04:45;;;;;;;37.80;18.43;;;5.60;99.90;;;;;;5002256;28;20677;-68
2022/03/30 03:07:14;;;;;;;37.40;18.83;;;;;;;;;;4967821;28;20421;-68
2022/03/30 03:09:40;;;;;;;35.35;19.27;;;;;;;;;;5022601;28;22123;-69
2022/03/30 03:12:06;;;;;;;36.80;18.90;;;;;;;;;;4982980;28;20447;-68
2022/03/30 03:14:33;;;;;;;39.28;19.00;;;;;;;;;;4980958;28;20468;-69
2022/03/30 03:16:59;;;;;;;37.80;19.65;;;;;;;;;;4993550;28;20534;-68
2022/03/30 03:19:25;;;;;;;36.30;18.52;;;;;;;;;;4994119;28;20873;-68
2022/03/30 03:21:51;;;;;;;38.28;18.63;;;;;;;;;;4997956;28;20441;-68
2022/03/30 03:24:17;;;;;;;36.35;18.20;;;;;;;;;;4981231;28;20774;-69
2022/03/30 03:26:43;;;;;;;28.85;14.70;;;;;;;;;;5003360;28;20435;-69
2022/03/30 03:29:09;;;;;;;21.53;11.93;;;;;;;;;;4988714;28;20472;-68
2022/03/30 03:31:35;;;;;;;21.77;9.50;;;;;;;;;;4952198;28;20649;-68
2022/03/30 03:34:01;;;;;;;16.25;8.93;;;;;;;;;;4991423;28;20441;-68
2022/03/30 03:36:28;;;;;;;15.98;7.93;;;;;;;;;;5008470;28;20437;-68
2022/03/30 03:38:54;;;;;;;15.80;7.30;;;;;;;;;;4993645;28;20421;-68
2022/03/30 03:41:20;;;;;;;12.93;5.82;;;6.30;99.90;;;;;;4998185;28;20498;-68
2022/03/30 03:43:46;;;;;;;10.50;3.90;;;;;;;;;;4971974;28;20457;-68
2022/03/30 03:46:12;;;;;;;8.98;3.55;;;;;;;;;;4989436;28;20509;-68
2022/03/30 03:48:38;;;;;;;6.30;2.78;;;;;;;;;;4989688;28;20437;-68
2022/03/30 03:51:05;;;;;;;4.88;2.08;;;;;;;;;;4988276;28;20888;-69
2022/03/30 03:53:31;;;;;;;4.32;1.90;;;;;;;;;;4992937;28;20425;-69
2022/03/30 03:55:57;;;;;;;5.60;1.70;;;;;;;;;;4972211;28;20515;-67
2022/03/30 03:58:23;;;;;;;5.38;1.60;;;;;;;;;;5008357;28;20428;-68
2022/03/30 04:00:49;;;;;;;3.55;1.60;;;;;;;;;;4983854;28;20431;-68
2022/03/30 04:03:15;;;;;;;3.50;1.50;;;;;;;;;;4974760;28;20432;-68
2022/03/30 04:05:41;;;;;;;4.10;1.77;;;;;;;;;;4999228;28;20421;-67
2022/03/30 04:08:08;;;;;;;3.67;1.30;;;;;;;;;;4974114;28;20421;-68
2022/03/30 04:10:34;;;;;;;3.03;1.20;;;;;;;;;;4978768;28;20428;-67
2022/03/30 04:13:00;;;;;;;3.13;1.30;;;;;;;;;;5002262;28;20432;-67
2022/03/30 04:15:26;;;;;;;2.83;1.17;;;;;;;;;;5003259;28;20445;-68
2022/03/30 04:17:54;;;;;;;5.05;1.35;;;;;;;;;;5000831;28;20446;-67
2022/03/30 04:20:20;;;;;;;2.63;1.10;;;;;;;;;;4960276;28;20434;-67
2022/03/30 04:22:47;;;;;;;4.10;1.23;;;;;;;;;;4998115;28;20432;-67
2022/03/30 04:25:13;;;;;;;3.67;1.40;;;;;;;;;;4980318;28;20438;-67
2022/03/30 04:27:50;;;;;;;2.83;1.00;;;;;;;;;;4989955;28;20425;-67
2022/03/30 04:30:16;;;;;;;4.90;1.30;;;;;;;;;;5001220;28;20448;-68
2022/03/30 04:32:44;;;;;;;3.55;0.90;;;;;;;;;;4991817;28;20430;-67
2022/03/30 04:35:11;;;;;;;2.72;0.98;;;;;;;;;;4989032;28;20425;-67
2022/03/30 04:37:38;;;;;;;3.03;1.00;;;5.70;99.90;;;;;;4986134;28;20436;-67
2022/03/30 04:40:05;;;;;;;2.00;0.90;;;;;;;;;;4999847;28;20515;-67
2022/03/30 04:42:31;;;;;;;4.13;0.90;;;;;;;;;;5005381;28;20428;-67
2022/03/30 04:44:57;;;;;;;1.88;1.00;;;;;;;;;;5002985;28;20916;-67
2022/03/30 04:47:23;;;;;;;2.95;1.00;;;;;;;;;;4979803;28;20447;-68
2022/03/30 04:49:49;;;;;;;2.00;0.88;;;;;;;;;;4998770;28;20432;-68
2022/03/30 04:52:15;;;;;;;3.75;1.20;;;;;;;;;;5000410;28;20478;-67
2022/03/30 04:54:41;;;;;;;3.63;1.20;;;;;;;;;;4985954;28;20425;-67
2022/03/30 04:57:07;;;;;;;3.80;1.30;;;;;;;;;;4992338;28;20424;-67
2022/03/30 04:59:33;;;;;;;3.78;1.25;;;;;;;;;;4999446;28;20434;-67
2022/03/30 05:02:00;;;;;;;2.30;1.30;;;;;;;;;;5000326;28;20432;-68
2022/03/30 05:04:26;;;;;;;3.10;1.20;;;;;;;;;;5006042;28;20461;-68
2022/03/30 05:06:52;;;;;;;2.25;1.10;;;;;;;;;;4978920;28;20417;-68
2022/03/30 05:09:18;;;;;;;2.90;1.88;;;5.50;99.90;;;;;;4990951;28;20447;-68
2022/03/30 05:11:45;;;;;;;3.63;1.48;;;;;;;;;;4992944;28;20451;-67
2022/03/30 05:14:11;;;;;;;2.93;1.37;;;;;;;;;;4969184;28;20597;-68
2022/03/30 05:16:37;;;;;;;3.83;1.40;;;;;;;;;;4979900;28;21029;-68
2022/03/30 05:19:03;;;;;;;4.10;1.40;;;;;;;;;;4992370;28;20484;-67
2022/03/30 05:21:30;;;;;;;3.92;1.50;;;;;;;;;;4982931;28;20479;-68
2022/03/30 05:23:56;;;;;;;3.95;1.38;;;;;;;;;;4992763;28;20441;-68
2022/03/30 05:26:22;;;;;;;3.20;1.40;;;4.90;99.90;;;;;;4988814;28;20432;-68
2022/03/30 05:28:50;;;;;;;4.95;1.50;;;4.90;99.90;;;;;;5002874;28;20436;-68
2022/03/30 05:31:16;;;;;;;3.97;1.30;;;4.80;99.90;;;;;;4983814;28;20423;-68
2022/03/30 05:33:42;;;;;;;2.97;1.55;;;;;;;;;;4984394;28;20459;-67
2022/03/30 05:36:08;;;;;;;3.67;1.77;;;;;;;;;;4973294;28;20433;-68
2022/03/30 05:38:34;;;;;;;3.60;1.47;;;;;;;;;;5007361;28;20453;-68
2022/03/30 05:41:02;;;;;;;4.72;1.80;;;;;;;;;;5002880;28;20444;-68
2022/03/30 05:43:28;;;;;;;4.25;1.65;;;;;;;;;;4970271;28;20442;-68
2022/03/30 05:45:54;;;;;;;4.63;1.65;;;;;;;;;;5001786;28;20509;-68
2022/03/30 05:48:21;;;;;;;4.10;1.85;;;;;;;;;;4985205;28;20425;-68
2022/03/30 05:50:47;;;;;;;4.18;1.90;;;;;;;;;;4983970;28;20437;-67
2022/03/30 05:53:14;;;;;;;4.32;1.80;;;;;;;;;;4986973;28;20513;-67
2022/03/30 05:55:41;;;;;;;5.40;1.80;;;;;;;;;;4984566;28;20961;-67
2022/03/30 05:58:07;;;;;;;4.63;2.10;;;;;;;;;;4983281;28;20446;-67
2022/03/30 06:00:33;;;;;;;4.32;1.90;;;;;;;;;;4958393;28;20430;-68
2022/03/30 06:03:00;;;;;;;4.40;1.80;;;;;;;;;;4986172;28;20444;-68
2022/03/30 06:05:26;;;;;;;6.80;2.30;;;;;;;;;;4987284;28;20524;-67
2022/03/30 06:07:54;;;;;;;5.13;1.98;;;;;;;;;;5005974;28;20425;-67
2022/03/30 06:10:21;;;;;;;4.22;2.08;;;;;;;;;;4993177;28;20437;-67
2022/03/30 06:12:47;;;;;;;5.30;2.30;;;;;;;;;;4965540;28;20446;-68
2022/03/30 06:15:13;;;;;;;5.28;2.03;;;;;;;;;;4968124;28;20439;-68
2022/03/30 06:17:39;;;;;;;5.07;2.20;;;;;;;;;;4986955;28;20441;-68
2022/03/30 06:20:06;;;;;;;5.63;2.10;;;;;;;;;;4995639;28;20505;-69
2022/03/30 06:22:32;;;;;;;5.28;2.40;;;;;;;;;;4977343;28;20456;-68
2022/03/30 06:24:59;;;;;;;4.45;2.00;;;;;;;;;;4991753;28;20431;-69
2022/03/30 06:27:25;;;;;;;5.15;2.10;;;;;;;;;;4970850;28;20429;-68
2022/03/30 06:29:51;;;;;;;4.35;2.10;;;;;;;;;;4983584;28;20430;-69
2022/03/30 06:32:18;;;;;;;4.38;2.20;;;;;;;;;;4967062;28;20425;-68
2022/03/30 06:34:45;;;;;;;6.22;1.92;;;;;;;;;;4970082;28;20444;-69
2022/03/30 06:37:11;;;;;;;6.28;2.22;;;;;;;;;;4987893;28;20924;-69
2022/03/30 06:39:37;;;;;;;6.10;2.27;;;;;;;;;;4964861;28;20504;-68
2022/03/30 06:42:05;;;;;;;4.53;2.20;;;;;;;;;;4985173;28;20453;-69
2022/03/30 06:44:33;;;;;;;4.13;2.13;;;;;;;;;;4979562;28;20508;-68
2022/03/30 06:46:59;;;;;;;5.82;2.40;;;;;;;;;;4975886;28;20440;-68
2022/03/30 06:49:26;;;;;;;6.45;2.92;;;;;;;;;;5065129;28;20464;-68
2022/03/30 06:51:52;;;;;;;5.18;2.40;;;;;;;;;;4995895;28;20486;-70
2022/03/30 06:54:18;;;;;;;6.53;2.20;;;;;;;;;;4995979;28;20422;-70
2022/03/30 06:56:45;;;;;;;4.95;2.58;;;;;;;;;;4981284;28;20423;-68
2022/03/30 06:59:13;;;;;;;5.45;2.40;;;;;;;;;;4966590;28;20476;-69
2022/03/30 07:01:39;;;;;;;6.03;2.40;;;;;;;;;;4958391;28;20432;-68
2022/03/30 07:04:05;;;;;;;5.38;2.35;;;;;;;;;;4997964;28;20433;-68
2022/03/30 07:06:31;;;;;;;8.57;2.43;;;;;;;;;;4990157;28;20494;-68
2022/03/30 07:11:42;;;;;;;6.03;2.53;;;;;;;;;;4996787;28;20430;-68
2022/03/30 07:14:08;;;;;;;6.82;2.60;;;;;;;;;;4990902;28;20417;-68
2022/03/30 07:16:34;;;;;;;5.53;2.30;;;;;;;;;;4975068;28;20426;-68
2022/03/30 07:19:00;;;;;;;8.88;2.60;;;;;;;;;;4982120;28;20520;-68
2022/03/30 07:21:27;;;;;;;6.68;2.40;;;;;;;;;;4964600;28;20472;-69
2022/03/30 07:23:53;;;;;;;4.63;2.28;;;;;;;;;;4989322;28;21104;-68
2022/03/30 07:26:20;;;;;;;8.00;2.50;;;;;;;;;;4974095;28;20475;-68
2022/03/30 07:28:46;;;;;;;5.13;2.28;;;;;;;;;;4997175;28;20427;-68
2022/03/30 07:31:13;;;;;;;7.47;2.50;;;6.80;99.90;;;;;;4994404;28;20543;-68
2022/03/30 07:33:39;;;;;;;6.05;2.40;;;;;;;;;;4967098;28;20441;-68
2022/03/30 07:36:05;;;;;;;5.72;2.10;;;;;;;;;;4986937;28;20543;-68
2022/03/30 07:38:31;;;;;;;6.53;2.33;;;;;;;;;;4986305;28;20674;-67
2022/03/30 07:41:00;;;;;;;6.15;2.13;;;;;;;;;;5005924;28;21042;-68
2022/03/30 07:43:26;;;;;;;8.10;2.60;;;;;;;;;;4985617;28;20465;-70
2022/03/30 07:45:53;;;;;;;6.95;2.35;;;;;;;;;;4990952;28;20436;-68
2022/03/30 07:48:19;;;;;;;6.82;2.42;;;;;;;;;;4976739;28;20438;-68
2022/03/30 07:50:45;;;;;;;6.87;2.10;;;;;;;;;;4990758;28;20492;-68
2022/03/30 07:53:12;;;;;;;5.38;1.88;;;;;;;;;;4992027;28;20812;-68
2022/03/30 07:55:39;;;;;;;5.88;1.70;;;;;;;;;;4987851;28;20429;-67
2022/03/30 07:58:05;;;;;;;4.57;1.90;;;;;;;;;;4988998;28;20434;-68
2022/03/30 08:00:31;;;;;;;6.45;2.10;;;;;;;;;;4997990;28;20424;-68
2022/03/30 08:02:58;;;;;;;6.47;2.03;;;;;;;;;;4965974;28;20426;-68
2022/03/30 08:05:24;;;;;;;7.53;1.60;;;;;;;;;;4988096;28;20433;-68
2022/03/30 08:07:50;;;;;;;5.88;1.50;;;;;;;;;;4991767;28;20421;-69
2022/03/30 08:10:17;;;;;;;4.45;1.70;;;;;;;;;;4989353;28;20785;-69
2022/03/30 08:12:44;;;;;;;5.13;1.40;;;7.30;99.90;;;;;;4987696;28;20454;-69
2022/03/30 08:15:12;;;;;;;6.95;1.55;;;;;;;;;;4989483;28;20444;-69
2022/03/30 08:17:38;;;;;;;5.93;1.80;;;;;;;;;;4974295;28;20539;-69
2022/03/30 08:20:05;;;;;;;5.88;1.75;;;;;;;;;;4971917;28;20852;-69
2022/03/30 08:22:30;;;;;;;4.95;1.55;;;7.50;99.90;;;;;;4975904;28;20630;-68
2022/03/30 08:25:01;;;;;;;5.83;1.70;;;;;;;;;;4979188;28;21034;-69
2022/03/30 08:27:29;;;;;;;4.60;1.40;;;;;;;;;;4989988;28;20442;-69
2022/03/30 08:29:55;;;;;;;4.97;1.58;;;7.30;99.90;;;;;;4993852;28;20437;-69
2022/03/30 08:32:22;;;;;;;5.55;1.67;;;;;;;;;;4986827;28;20468;-69
2022/03/30 08:34:49;;;;;;;6.25;1.60;;;;;;;;;;4968694;28;20432;-69
2022/03/30 08:37:15;;;;;;;7.07;2.08;;;;;;;;;;4991069;28;20432;-68
2022/03/30 08:39:41;;;;;;;5.70;1.60;;;;;;;;;;4993316;28;20462;-68
2022/03/30 08:42:09;;;;;;;6.40;1.70;;;;;;;;;;4992647;28;20444;-68
2022/03/30 08:44:36;;;;;;;4.90;1.70;;;;;;;;;;4970857;28;20481;-68
2022/03/30 08:47:03;;;;;;;5.22;1.70;;;;;;;;;;4971891;28;20435;-69
2022/03/30 08:49:33;;;;;;;5.00;1.65;;;;;;;;;;4992558;28;20441;-69
2022/03/30 08:52:01;;;;;;;4.63;1.52;;;7.30;99.90;;;;;;4988200;28;20425;-69
2022/03/30 08:54:27;;;;;;;6.32;1.60;;;;;;;;;;4977389;28;20445;-69
2022/03/30 08:56:53;;;;;;;6.47;1.80;;;7.50;99.90;;;;;;5002789;28;20474;-69
2022/03/30 08:59:21;;;;;;;6.28;1.50;;;;;;;;;;4995317;28;20434;-70
2022/03/30 09:01:47;;;;;;;6.93;1.50;;;;;;;;;;4979823;28;20432;-70
2022/03/30 09:04:15;;;;;;;7.30;1.50;;;;;;;;;;4991750;28;20433;-70
2022/03/30 09:06:47;;;;;;;5.20;1.40;;;;;;;;;;4980251;28;20433;-69
2022/03/30 09:09:26;;;;;;;4.47;1.15;;;;;;;;;;4987496;28;20551;-68
2022/03/30 09:11:53;;;;;;;8.15;1.83;;;;;;;;;;4975545;28;20440;-68
2022/03/30 09:14:20;;;;;;;4.40;1.40;;;;;;;;;;4989160;28;20429;-69
2022/03/30 09:16:57;;;;;;;5.15;1.45;;;;;;;;;;4994933;28;20469;-69
2022/03/30 09:19:24;;;;;;;4.90;1.38;;;;;;;;;;4972926;28;20505;-69
2022/03/30 09:21:54;;;;;;;5.65;1.50;;;;;;;;;;4986178;28;20432;-69
2022/03/30 09:24:25;;;;;;;5.55;1.45;;;;;;;;;;4998436;28;20436;-69
2022/03/30 09:26:52;;;;;;;5.38;1.13;;;;;;;;;;4985847;28;20437;-68
2022/03/30 09:29:22;;;;;;;3.60;1.00;;;;;;;;;;4992542;28;20450;-68
2022/03/30 09:31:49;;;;;;;5.43;1.30;;;;;;;;;;4990843;28;20810;-69
2022/03/30 09:34:16;;;;;;;4.78;1.25;;;;;;;;;;5008984;28;20948;-69
2022/03/30 09:36:42;;;;;;;4.47;1.50;;;;;;;;;;4999649;28;20436;-69
2022/03/30 09:39:10;;;;;;;3.50;1.20;;;;;;;;;;5002671;28;20495;-69
2022/03/30 09:41:52;;;;;;;3.70;1.40;;;;;;;;;;5002633;28;20507;-69
2022/03/30 09:44:19;;;;;;;5.68;1.52;;;;;;;;;;4976237;28;20449;-69
2022/03/30 09:46:52;;;;;;;6.63;1.40;;;;;;;;;;4979392;28;20456;-69
2022/03/30 09:49:37;;;;;;;5.18;1.20;;;8.50;99.90;;;;;;4998617;28;20439;-69
2022/03/30 09:52:11;;;;;;;4.35;1.20;;;;;;;;;;4999511;28;20459;-68
2022/03/30 09:54:42;;;;;;;4.88;1.10;;;;;;;;;;4999841;28;20488;-68
2022/03/30 09:57:09;;;;;;;3.65;1.27;;;;;;;;;;4995630;28;20452;-69
2022/03/30 09:59:55;;;;;;;6.00;1.20;;;;;;;;;;4994459;28;20469;-69
2022/03/30 10:02:21;;;;;;;4.03;1.00;;;;;;;;;;4978364;28;20457;-69
2022/03/30 10:04:47;;;;;;;4.07;1.20;;;8.50;99.90;;;;;;5006179;28;20512;-68
2022/03/30 10:07:14;;;;;;;4.13;1.00;;;;;;;;;;4994575;28;21954;-69
2022/03/30 10:09:42;;;;;;;3.40;1.07;;;;;;;;;;4982982;28;20520;-70
2022/03/30 10:12:08;;;;;;;3.85;0.93;;;;;;;;;;4998847;28;20430;-69
2022/03/30 10:14:36;;;;;;;4.03;1.25;;;;;;;;;;4997160;28;20437;-68
2022/03/30 10:17:02;;;;;;;5.00;1.53;;;;;;;;;;5000298;28;20497;-68
2022/03/30 10:19:29;;;;;;;4.15;1.30;;;;;;;;;;4985783;28;20456;-69
2022/03/30 10:22:01;;;;;;;3.33;1.25;;;;;;;;;;4988592;28;20434;-69
2022/03/30 10:25:02;;;;;;;3.00;1.05;;;9.10;99.90;;;;;;5001351;28;20454;-69
2022/03/30 10:27:47;;;;;;;3.85;0.90;;;;;;;;;;5000627;28;20500;-69
2022/03/30 10:30:13;;;;;;;4.20;1.10;;;;;;;;;;5008037;28;20471;-69
2022/03/30 10:32:40;;;;;;;3.80;1.25;;;;;;;;;;4996648;28;20500;-69
2022/03/30 10:35:08;;;;;;;3.75;1.15;;;;;;;;;;5000877;28;20434;-70
2022/03/30 10:37:36;;;;;;;3.50;1.10;;;;;;;;;;5014868;28;20950;-70
2022/03/30 10:40:05;;;;;;;4.97;1.40;;;;;;;;;;4977751;28;20430;-69
2022/03/30 10:42:47;;;;;;;3.75;1.10;;;;;;;;;;4992643;28;20434;-70
2022/03/30 10:45:24;;;;;;;3.03;1.00;;;;;;;;;;4993111;28;20492;-70
2022/03/30 10:48:08;;;;;;;4.05;1.10;;;9.40;99.90;;;;;;4993898;28;20449;-70
2022/03/30 10:50:41;;;;;;;6.13;1.20;;;;;;;;;;5004684;28;20942;-70
2022/03/30 10:53:26;;;;;;;3.83;0.93;;;;;;;;;;4985151;28;20478;-69
2022/03/30 10:55:52;;;;;;;5.90;1.15;;;;;;;;;;4977996;28;20436;-70
2022/03/30 10:58:20;;;;;;;4.95;1.10;;;9.40;99.90;;;;;;4990619;28;20432;-70
2022/03/30 11:00:46;;;;;;;4.28;1.30;;;;;;;;;;4976252;28;20456;-70
2022/03/30 11:03:14;;;;;;;2.65;1.00;;;;;;;;;;4985700;28;20423;-70
2022/03/30 11:05:46;;;;;;;5.75;1.58;;;10.00;99.90;;;;;;4970820;28;20436;-70
2022/03/30 11:08:31;;;;;;;3.88;1.10;;;;;;;;;;4994945;28;20445;-70
2022/03/30 11:10:57;;;;;;;3.80;0.95;;;;;;;;;;4988273;28;20652;-70
2022/03/30 11:13:24;;;;;;;3.33;1.20;;;;;;;;;;5000484;28;20433;-70
2022/03/30 11:15:59;;;;;;;3.90;1.10;;;;;;;;;;4967101;28;20757;-70
2022/03/30 11:18:29;;;;;;;6.53;1.23;;;;;;;;;;4989214;28;20433;-70
2022/03/30 11:21:11;;;;;;;5.07;1.35;;;;;;;;;;4978562;28;20436;-70
2022/03/30 11:23:38;;;;;;;4.35;1.20;;;;;;;;;;4994524;28;20436;-70
2022/03/30 11:26:04;;;;;;;5.18;1.65;;;;;;;;;;5007033;28;20668;-70
2022/03/30 11:28:37;;;;;;;4.63;1.55;;;;;;;;;;5001620;28;20430;-70
2022/03/30 11:31:05;;;;;;;4.78;1.67;;;;;;;;;;4993600;28;21729;-70
2022/03/30 11:33:35;;;;;;;4.28;1.50;;;;;;;;;;4989301;28;20447;-70
2022/03/30 11:36:04;;;;;;;8.73;1.88;;;;;;;;;;4995098;28;20454;-70
2022/03/30 11:38:41;;;;;;;4.50;1.30;;;10.10;99.90;;;;;;4992995;28;20424;-69
2022/03/30 11:41:08;;;;;;;4.03;1.58;;;;;;;;;;5000283;28;20461;-70
2022/03/30 11:45:12;;;;;;;2.53;1.00;;;;;;;;;;4987989;28;20432;-71
2022/03/30 11:46:30;;;;;;;4.72;1.40;;;;;;;;;;5003434;28;20437;-70
2022/03/30 11:49:00;;;;;;;5.23;1.27;;;;;;;;;;4989868;28;20417;-70
2022/03/30 11:51:26;;;;;;;5.25;1.30;;;;;;;;;;5023943;28;20447;-69
2022/03/30 11:54:11;;;;;;;4.47;1.23;;;;;;;;;;4995900;28;20452;-71
2022/03/30 11:56:37;;;;;;;3.90;1.40;;;;;;;;;;4999785;28;20444;-69
2022/03/30 11:59:04;;;;;;;3.30;1.10;;;;;;;;;;4960747;28;20417;-70
2022/03/30 12:01:30;;;;;;;4.97;1.23;;;;;;;;;;4977530;28;20935;-69
2022/03/30 12:03:56;;;;;;;6.32;1.30;;;;;;;;;;4972626;28;20498;-70
2022/03/30 12:06:22;;;;;;;4.25;1.20;;;;;;;;;;4974290;28;20444;-69
2022/03/30 12:08:49;;;;;;;5.70;1.70;;;;;;;;;;4978036;28;20556;-70
2022/03/30 12:11:19;;;;;;;5.75;1.33;;;;;;;;;;4979858;28;20439;-71
2022/03/30 12:13:50;;;;;;;5.80;1.50;;;;;;;;;;4961878;28;20442;-70
2022/03/30 12:16:16;;;;;;;3.88;1.20;;;9.10;99.90;;;;;;4972709;28;20432;-71
2022/03/30 12:18:43;;;;;;;6.88;1.50;;;;;;;;;;4978147;28;20526;-70
2022/03/30 12:21:09;;;;;;;3.90;1.10;;;;;;;;;;5003611;28;20525;-71
2022/03/30 12:23:35;;;;;;;3.88;1.20;;;;;;;;;;4992534;28;20434;-70
2022/03/30 12:26:13;;;;;;;3.15;1.15;;;;;;;;;;4988262;28;20431;-70
2022/03/30 12:28:38;;;;;;;4.95;1.45;;;9.80;99.90;;;;;;4977576;28;20471;-71
2022/03/30 12:31:07;;;;;;;6.35;1.40;;;;;;;;;;5008137;28;20417;-70
2022/03/30 12:33:41;;;;;;;4.10;1.10;;;;;;;;;;4992279;28;20451;-71
2022/03/30 12:36:14;;;;;;;4.80;1.30;;;;;;;;;;4999910;28;21167;-70
2022/03/30 12:38:41;;;;;;;4.13;1.20;;;;;;;;;;5006370;28;20428;-70
2022/03/30 12:41:07;;;;;;;2.63;1.20;;;;;;;;;;5003909;28;20501;-71
2022/03/30 12:43:33;;;;;;;3.33;1.10;;;;;;;;;;5003833;28;20553;-71
2022/03/30 12:46:01;;;;;;;3.65;1.10;;;;;;;;;;4980904;28;20944;-71
2022/03/30 12:48:27;;;;;;;3.47;1.10;;;;;;;;;;4987858;28;20437;-70
2022/03/30 12:50:54;;;;;;;3.47;1.23;;;;;;;;;;4995016;28;20444;-70
2022/03/30 12:53:25;;;;;;;3.47;1.23;;;;;;;;;;4973489;28;20515;-70
2022/03/30 12:55:51;;;;;;;5.45;1.30;;;10.20;99.90;;;;;;4995261;28;20426;-70
2022/03/30 12:58:24;;;;;;;4.57;1.17;;;;;;;;;;4976986;28;20436;-69
2022/03/30 13:00:51;;;;;;;4.33;1.10;;;;;;;;;;4997026;28;20998;-70
2022/03/30 13:03:19;;;;;;;7.45;1.13;;;;;;;;;;4983074;28;20434;-69
2022/03/30 13:05:46;;;;;;;6.30;1.33;;;;;;;;;;4972945;28;20530;-70
2022/03/30 13:08:14;;;;;;;5.25;1.40;;;;;;;;;;4975426;28;20465;-71
2022/03/30 13:10:50;;;;;;;4.05;1.23;;;;;;;;;;4980505;28;20441;-71
2022/03/30 13:13:17;;;;;;;6.05;1.20;;;;;;;;;;4998954;28;20429;-70
2022/03/30 13:15:44;;;;;;;4.07;1.23;;;;;;;;;;4981288;28;20481;-69
2022/03/30 13:18:14;;;;;;;4.15;1.40;;;;;;;;;;4984410;28;20443;-69
2022/03/30 13:20:41;;;;;;;2.95;1.20;;;;;;;;;;5009340;28;20596;-70
2022/03/30 13:23:10;;;;;;;6.35;1.52;;;;;;;;;;4968402;28;20424;-71
2022/03/30 13:25:43;;;;;;;5.03;1.20;;;;;;;;;;4995870;28;20453;-70
2022/03/30 13:28:21;;;;;;;5.80;1.40;;;;;;;;;;5002537;28;20442;-69
2022/03/30 13:30:47;;;;;;;4.20;1.20;;;;;;;;;;4980093;28;20508;-70
2022/03/30 13:33:13;;;;;;;5.20;1.57;;;;;;;;;;4972305;28;20543;-71
2022/03/30 13:35:39;;;;;;;5.70;1.50;;;;;;;;;;4983913;28;20432;-71
2022/03/30 13:38:15;;;;;;;4.53;1.42;;;;;;;;;;4993656;28;20422;-70
2022/03/30 13:40:41;;;;;;;4.40;1.38;;;;;;;;;;4976214;28;20445;-71
2022/03/30 13:43:07;;;;;;;5.05;1.48;;;;;;;;;;4960028;28;20855;-71
2022/03/30 13:45:33;;;;;;;4.10;1.25;;;;;;;;;;4970538;28;20433;-71
2022/03/30 13:47:59;;;;;;;3.50;1.35;;;;;;;;;;4963396;28;20415;-71
2022/03/30 13:50:26;;;;;;;6.30;1.60;;;;;;;;;;4991634;28;20505;-71
2022/03/30 13:52:52;;;;;;;6.95;1.83;;;;;;;;;;4981360;28;20425;-71
2022/03/30 13:55:20;;;;;;;5.10;1.30;;;;;;;;;;4981129;28;20426;-70
2022/03/30 13:57:46;;;;;;;4.85;1.70;;;;;;;;;;4981784;28;21097;-70
2022/03/30 14:00:12;;;;;;;4.10;1.60;;;;;;;;;;4975971;28;20576;-69
2022/03/30 14:02:38;;;;;;;4.55;1.50;;;;;;;;;;4981753;28;20436;-70
2022/03/30 14:05:04;;;;;;;3.05;1.20;;;;;;;;;;4997468;28;20409;-72
2022/03/30 14:07:31;;;;;;;4.40;1.20;;;;;;;;;;4971473;28;20472;-70
2022/03/30 14:09:57;;;;;;;4.43;1.42;;;;;;;;;;4969888;28;20474;-70
2022/03/30 14:12:27;;;;;;;4.35;1.30;;;;;;;;;;4976409;28;20455;-70
2022/03/30 14:14:53;;;;;;;6.65;1.45;;;;;;;;;;4980188;28;20429;-70
2022/03/30 14:17:21;;;;;;;5.78;1.33;;;;;;;;;;4998251;28;20415;-70
2022/03/30 14:19:47;;;;;;;4.55;1.75;;;;;;;;;;4976661;28;20436;-70
2022/03/30 14:22:14;;;;;;;4.85;1.10;;;;;;;;;;4975947;28;20429;-70
2022/03/30 14:24:40;;;;;;;5.07;1.20;;;;;;;;;;4982720;28;20494;-71
2022/03/30 14:27:06;;;;;;;6.18;1.40;;;9.90;99.90;;;;;;4985937;28;20471;-70
2022/03/30 14:29:32;;;;;;;5.70;1.42;;;;;;;;;;4978727;28;20451;-69
2022/03/30 14:31:59;;;;;;;5.93;1.30;;;;;;;;;;4990332;28;20460;-70
2022/03/30 14:34:25;;;;;;;3.70;1.20;;;;;;;;;;5005876;28;20797;-71